Time;durP1;ratioP1;P1;durP2;ratioP2;P2;SDS_P1;SDS_P2;PMS_P1;PMS_P2;Temp;Humidity;BMP_temperature;BMP_pressure;BME280_temperature;BME280_humidity;BME280_pressure;Samples;Min_cycle;Max_cycle;Signal;HPM_P1;HPM_P2
2023/02/10 00:02:20;;;;;;;;;91.67;87.33;;;;;7.23;56.63;102836.66;4973105;28;45378;-68
2023/02/10 00:04:46;;;;;;;;;104.00;93.00;;;;;7.20;56.40;102831.38;4975060;28;45235;-69
2023/02/10 00:07:11;;;;;;;;;95.00;90.67;;;;;7.15;56.13;102826.97;4975231;28;49980;-69
2023/02/10 00:09:36;;;;;;;;;93.00;87.67;;;;;7.16;56.77;102826.13;4975421;28;45256;-68
2023/02/10 00:12:02;;;;;;;;;96.00;93.00;;;;;7.18;56.15;102834.00;4975094;28;56764;-70
2023/02/10 00:14:29;;;;;;;;;97.50;91.50;;;;;7.13;57.12;102830.47;4976067;28;45376;-70
2023/02/10 00:16:56;;;;;;;;;103.00;95.25;;;;;7.16;56.63;102836.59;4974541;28;45387;-68
2023/02/10 00:19:23;;;;;;;;;93.25;90.00;;;;;7.10;56.89;102826.06;4974972;28;45573;-70
2023/02/10 00:21:49;;;;;;;;;95.75;93.25;;;;;7.16;56.29;102830.50;4975036;28;45323;-69
2023/02/10 00:24:15;;;;;;;;;108.67;98.33;;;;;7.13;56.91;102831.31;4974646;28;45181;-69
2023/02/10 00:26:40;;;;;;;;;94.00;89.50;;;;;7.16;57.09;102833.97;4974431;28;45170;-69
2023/02/10 00:29:05;;;;;;;;;100.25;97.50;;;;;7.16;56.80;102831.34;4974715;28;45386;-70
2023/02/10 00:31:31;;;;;;;;;100.33;94.67;;;;;7.17;57.39;102827.00;4973918;28;47059;-68
2023/02/10 00:33:56;;;;;;;;;102.00;96.00;;;;;7.08;56.84;102812.06;4988285;28;45180;-68
2023/02/10 00:36:24;;;;;;;;;87.33;81.67;;;;;7.19;57.14;102832.25;4974317;28;45849;-68
2023/02/10 00:38:50;;;;;;;;;93.50;90.50;;;;;7.16;57.75;102831.34;4974757;28;45561;-69
2023/02/10 00:41:19;;;;;;;;;104.75;98.50;;;;;7.20;57.62;102831.38;4972742;28;47169;-70
2023/02/10 00:43:45;;;;;;;;;109.25;102.50;;;;;7.15;57.37;102816.50;4974426;28;45498;-68
2023/02/10 00:46:11;;;;;;;;;114.50;107.25;;;;;7.18;56.89;102830.50;4975107;28;45310;-69
2023/02/10 00:48:37;;;;;;;;;103.25;101.25;;;;;7.15;57.07;102823.50;4975124;28;45335;-70
2023/02/10 00:51:03;;;;;;;;;113.50;102.75;;;;;7.19;57.78;102821.78;4974917;28;47592;-68
2023/02/10 00:53:30;;;;;;;;;103.25;100.50;;;;;7.19;57.02;102819.16;4973981;28;45352;-69
2023/02/10 00:55:56;;;;;;;;;103.25;100.00;;;;;7.18;57.80;102818.28;4974063;28;45506;-69
2023/02/10 00:58:21;;;;;;;;;98.75;93.50;;;;;7.19;57.95;102819.16;4974390;28;45204;-68
2023/02/10 01:00:47;;;;;;;;;105.00;100.50;;;;;7.14;57.55;102809.53;4973495;28;45456;-68
2023/02/10 01:03:13;;;;;;;;;99.25;94.75;;;;;7.23;57.80;102828.78;4973658;28;45405;-67
2023/02/10 01:05:38;;;;;;;;;72.50;60.25;;;;;7.23;57.63;102832.31;4973993;28;45402;-68
2023/02/10 01:08:03;;;;;;;;;99.00;94.50;;;;;7.23;58.82;102834.03;4974154;28;45490;-67
2023/02/10 01:10:38;;;;;;;;;102.00;96.75;;;;;7.17;58.21;102819.16;4974473;28;45319;-67
2023/02/10 01:13:12;;;;;;;;;95.75;91.00;;;;;7.22;59.17;102830.56;4975412;28;45434;-71
2023/02/10 01:15:46;;;;;;;;;92.50;90.00;;;;;7.22;59.62;102830.56;4974816;28;45281;-67
2023/02/10 01:18:11;;;;;;;;;95.75;93.75;;;;;7.21;59.25;102825.28;4976558;28;45373;-70
2023/02/10 01:20:42;;;;;;;;;107.50;105.00;;;;;7.15;59.96;102826.97;4974035;28;46038;-70
2023/02/10 01:23:08;;;;;;;;;94.67;88.67;;;;;7.16;60.35;102830.50;4974136;28;45382;-70
2023/02/10 01:25:35;;;;;;;;;102.25;98.50;;;;;7.16;60.81;102839.19;4972869;28;45361;-68
2023/02/10 01:28:01;;;;;;;;;107.50;97.00;;;;;7.15;60.84;102834.84;4974075;28;45268;-71
2023/02/10 01:30:26;;;;;;;;;94.75;91.50;;;;;7.14;60.75;102838.31;4973446;28;46573;-69
2023/02/10 01:32:55;;;;;;;;;110.75;106.50;;;;;7.07;60.80;102826.03;4974186;28;45342;-68
2023/02/10 01:35:20;;;;;;;;;105.50;99.75;;;;;7.12;61.23;102836.56;4974153;28;45433;-70
2023/02/10 01:37:46;;;;;;;;;103.75;100.50;;;;;7.11;61.70;102837.41;4975188;28;45589;-68
2023/02/10 01:40:11;;;;;;;;;109.75;105.50;;;;;7.03;61.44;102823.38;4973697;28;45347;-67
2023/02/10 01:42:38;;;;;;;;;110.50;104.50;;;;;7.07;61.62;102833.88;4973572;28;54810;-69
2023/02/10 01:45:13;;;;;;;;;104.50;102.00;;;;;7.06;62.09;102824.28;4973799;28;45466;-68
2023/02/10 01:47:41;;;;;;;;;107.00;100.25;;;;;6.93;62.28;102814.53;4973996;28;45352;-70
2023/02/10 01:50:07;;;;;;;;;100.25;92.50;;;;;7.03;61.93;102834.69;4972039;28;45333;-69
2023/02/10 01:52:33;;;;;;;;;105.00;100.75;;;;;7.04;63.03;102838.22;4973436;28;45395;-67
2023/02/10 01:55:06;;;;;;;;;110.50;102.25;;;;;6.99;62.81;102833.81;4973450;28;45275;-67
2023/02/10 01:57:34;;;;;;;;;100.75;94.25;;;;;7.00;62.75;102835.56;4973489;28;45354;-69
2023/02/10 02:00:02;;;;;;;;;103.00;96.00;;;;;7.00;63.05;102834.66;4973478;28;45407;-67
2023/02/10 02:02:28;;;;;;;;;100.33;96.00;;;;;7.00;63.06;102834.66;4974050;28;45344;-67
2023/02/10 02:05:00;;;;;;;;;100.00;93.75;;;;;6.99;63.54;102838.16;4973813;28;45376;-66
2023/02/10 02:07:29;;;;;;;;;99.25;95.00;;;;;6.95;63.58;102837.25;4973851;28;45820;-69
2023/02/10 02:09:59;;;;;;;;;91.33;88.00;;;;;6.93;63.87;102838.09;4973524;28;45280;-68
2023/02/10 02:12:57;;;;;;;;;102.00;98.33;;;;;6.91;64.10;102835.47;4972067;28;45485;-69
2023/02/10 02:15:47;;;;;;;;;85.67;79.67;;;;;6.91;63.70;102842.41;4973572;28;45740;-67
2023/02/10 02:18:26;;;;;;;;;103.50;95.25;;;;;6.92;63.90;102839.84;4973289;28;45355;-68
2023/02/10 02:21:00;;;;;;;;;102.75;100.00;;;;;6.91;64.13;102840.69;4973260;28;45279;-68
2023/02/10 02:24:03;;;;;;;;;90.50;88.00;;;;;6.93;64.48;102838.09;4973996;28;45331;-71
2023/02/10 02:26:49;;;;;;;;;99.50;95.25;;;;;6.92;63.72;102838.94;4974281;28;45258;-68
2023/02/10 02:29:33;;;;;;;;;98.50;96.25;;;;;6.91;63.46;102837.19;4973044;28;45395;-72
2023/02/10 02:32:07;;;;;;;;;106.25;98.75;;;;;6.90;63.79;102830.19;4972871;28;46118;-69
2023/02/10 02:34:41;;;;;;;;;104.25;101.00;;;;;6.83;63.77;102831.84;4955272;28;45384;-69
2023/02/10 02:37:16;;;;;;;;;111.00;101.25;;;;;6.78;64.27;102826.59;4972804;28;45505;-68
2023/02/10 02:39:42;;;;;;;;;110.50;104.25;;;;;6.79;63.72;102824.81;4972815;28;45372;-71
2023/02/10 02:42:27;;;;;;;;;108.75;105.50;;;;;6.75;63.54;102829.16;4972751;28;46373;-69
2023/02/10 02:45:07;;;;;;;;;103.50;96.75;;;;;6.71;63.36;102823.00;4972903;28;45541;-68
2023/02/10 02:48:20;;;;;;;;;112.00;102.25;;;;;6.70;64.24;102820.38;4972782;28;45416;-68
2023/02/10 02:51:16;;;;;;;;;89.50;76.00;;;;;6.68;63.65;102832.56;5034643;28;45334;-69
2023/02/10 02:53:53;;;;;;;;;107.00;101.25;;;;;6.65;63.98;102830.78;4972776;28;46652;-68
2023/02/10 02:56:45;;;;;;;;;112.00;107.75;;;;;6.65;63.31;102837.75;4973922;28;45501;-70
2023/02/10 02:59:25;;;;;;;;;114.50;112.50;;;;;6.61;63.55;102847.28;4975782;28;45289;-69
2023/02/10 03:01:56;;;;;;;;;120.50;110.00;;;;;6.57;64.19;102851.63;4978434;28;45405;-69
2023/02/10 03:04:22;;;;;;;;;112.75;103.75;;;;;6.54;64.31;102846.34;4975781;28;46404;-69
2023/02/10 03:06:47;;;;;;;;;109.75;103.75;;;;;6.55;64.81;102842.88;4975508;28;45365;-69
2023/02/10 03:09:14;;;;;;;;;106.00;99.50;;;;;6.49;64.03;102834.94;4976201;28;45384;-68
2023/02/10 03:11:39;;;;;;;;;111.00;104.25;;;;;6.55;64.03;102839.38;4976263;28;45577;-67
2023/02/10 03:14:05;;;;;;;;;114.25;108.25;;;;;6.54;63.95;102835.88;4975902;28;45486;-68
2023/02/10 03:16:30;;;;;;;;;118.50;109.25;;;;;6.53;64.66;102839.34;4975682;28;45389;-70
2023/02/10 03:18:55;;;;;;;;;109.25;104.75;;;;;6.51;64.19;102835.84;4975709;28;45407;-69
2023/02/10 03:21:21;;;;;;;;;106.75;99.75;;;;;6.51;64.70;102832.34;4975661;28;45584;-69
2023/02/10 03:23:46;;;;;;;;;100.00;97.25;;;;;6.52;65.10;102837.59;4975469;28;46621;-67
2023/02/10 03:26:12;;;;;;;;;101.67;94.00;;;;;6.53;64.89;102846.31;4975510;28;45325;-69
2023/02/10 03:28:37;;;;;;;;;106.25;102.50;;;;;6.54;65.48;102846.34;4975686;28;45450;-67
2023/02/10 03:31:05;;;;;;;;;109.00;104.00;;;;;6.53;64.56;102846.31;4973676;28;45427;-69
2023/02/10 03:33:30;;;;;;;;;99.75;93.50;;;;;6.50;64.99;102839.31;4974585;28;45663;-68
2023/02/10 03:35:57;;;;;;;;;110.75;101.00;;;;;6.54;64.73;102841.13;4974604;28;45385;-69
2023/02/10 03:38:22;;;;;;;;;102.25;98.00;;;;;6.52;65.23;102842.81;4975361;28;45367;-68
2023/02/10 03:40:51;;;;;;;;;110.50;102.25;;;;;6.57;65.04;102845.50;4976222;28;45331;-67
2023/02/10 03:43:18;;;;;;;;;102.67;100.00;;;;;6.59;64.55;102843.78;4973526;28;48888;-70
2023/02/10 03:45:46;;;;;;;;;94.50;92.25;;;;;6.58;65.78;102842.91;4973577;28;45379;-70
2023/02/10 03:48:12;;;;;;;;;94.50;94.00;;;;;6.62;65.43;102837.72;4975154;28;45278;-70
2023/02/10 03:50:38;;;;;;;;;96.67;94.00;;;;;6.62;65.49;102848.19;4975234;28;45255;-68
2023/02/10 03:53:03;;;;;;;;;91.33;89.67;;;;;6.66;65.11;102847.34;4974867;28;45282;-68
2023/02/10 03:55:29;;;;;;;;;95.67;88.33;;;;;6.66;64.99;102849.97;4975337;28;45420;-70
2023/02/10 03:57:55;;;;;;;;;88.00;86.33;;;;;6.70;65.61;102846.53;4973635;28;45423;-66
2023/02/10 04:00:20;;;;;;;;;89.33;88.67;;;;;6.73;65.63;102842.19;4973887;28;45256;-68
2023/02/10 04:02:45;;;;;;;;;88.00;85.33;;;;;6.71;65.13;102841.31;4974730;28;46041;-66
2023/02/10 04:05:11;;;;;;;;;90.33;85.33;;;;;6.76;65.88;102851.84;4975505;28;45390;-67
2023/02/10 04:07:37;;;;;;;;;92.67;89.33;;;;;6.75;65.63;102842.25;4973740;28;45376;-67
2023/02/10 04:10:04;;;;;;;;;87.00;82.67;;;;;6.81;65.80;102851.88;4976735;28;45564;-69
2023/02/10 04:12:30;;;;;;;;;92.00;84.33;;;;;6.81;65.85;102844.94;4975497;28;48034;-69
2023/02/10 04:14:55;;;;;;;;;93.33;86.33;;;;;6.81;65.41;102844.03;4974797;28;45438;-68
2023/02/10 04:17:21;;;;;;;;;94.33;89.33;;;;;6.70;65.71;102833.47;4975864;28;45372;-67
2023/02/10 04:19:46;;;;;;;;;99.33;90.67;;;;;6.76;65.58;102841.38;4974779;28;45640;-68
2023/02/10 04:22:15;;;;;;;;;87.33;84.00;;;;;6.76;65.53;102838.75;4974528;28;45994;-70
2023/02/10 04:24:40;;;;;;;;;92.00;86.00;;;;;6.71;66.35;102836.06;4974962;28;45419;-68
2023/02/10 04:27:06;;;;;;;;;96.33;90.33;;;;;6.75;65.93;102843.97;4975922;28;45261;-67
2023/02/10 04:29:31;;;;;;;;;95.50;91.50;;;;;6.73;66.07;102846.56;4979693;28;45274;-71
2023/02/10 04:31:56;;;;;;;;;102.33;95.67;;;;;6.69;65.97;102845.66;4980912;28;46762;-72
2023/02/10 04:34:22;;;;;;;;;91.67;86.67;;;;;6.76;66.06;102866.66;4979334;28;45293;-68
2023/02/10 04:36:47;;;;;;;;;93.00;89.67;;;;;6.73;65.24;102860.50;4980815;28;45314;-69
2023/02/10 04:39:12;;;;;;;;;99.67;94.67;;;;;6.74;66.25;102869.25;4979974;28;45568;-66
2023/02/10 04:41:38;;;;;;;;;91.67;87.33;;;;;6.73;66.26;102870.97;4979005;28;45431;-68
2023/02/10 04:44:03;;;;;;;;;90.33;87.67;;;;;6.65;65.33;102861.28;4977112;28;45321;-69
2023/02/10 04:46:29;;;;;;;;;88.67;84.00;;;;;6.67;66.28;102873.50;4976694;28;45259;-68
2023/02/10 04:48:54;;;;;;;;;95.33;92.00;;;;;6.67;65.95;102872.66;4975936;28;45617;-67
2023/02/10 04:51:20;;;;;;;;;92.00;88.00;;;;;6.64;65.75;102872.63;4974946;28;46037;-69
2023/02/10 04:53:47;;;;;;;;;91.00;89.67;;;;;6.65;65.80;102877.00;4974506;28;45294;-68
2023/02/10 04:56:13;;;;;;;;;105.00;95.67;;;;;6.60;65.66;102870.81;4975843;28;45235;-67
2023/02/10 04:58:38;;;;;;;;;95.75;87.00;;;;;6.61;65.95;102875.19;4978753;28;45397;-69
2023/02/10 05:01:04;;;;;;;;;95.00;92.33;;;;;6.60;66.09;102881.28;4976927;28;45429;-67
2023/02/10 05:03:30;;;;;;;;;92.50;89.50;;;;;6.50;66.73;102860.25;4974480;28;45378;-69
2023/02/10 05:05:55;;;;;;;;;98.25;96.00;;;;;6.57;65.89;102888.22;4974550;28;45352;-70
2023/02/10 05:08:23;;;;;;;;;96.25;93.50;;;;;6.52;66.04;102874.22;4974924;28;45370;-68
2023/02/10 05:10:50;;;;;;;;;99.67;94.33;;;;;6.58;66.25;102895.22;4974492;28;46982;-70
2023/02/10 05:13:16;;;;;;;;;87.00;81.00;;;;;6.58;65.74;102879.53;4973949;28;45227;-68
2023/02/10 05:15:41;;;;;;;;;91.67;88.00;;;;;6.56;66.34;102870.78;4974741;28;45459;-67
2023/02/10 05:18:06;;;;;;;;;86.33;84.00;;;;;6.58;66.08;102889.09;4974495;28;45371;-68
2023/02/10 05:20:32;;;;;;;;;83.67;80.33;;;;;6.61;66.73;102898.72;4974834;28;46373;-68
2023/02/10 05:22:57;;;;;;;;;85.67;82.33;;;;;6.53;66.00;102875.97;4973814;28;45405;-70
2023/02/10 05:25:23;;;;;;;;;82.33;71.67;;;;;6.60;65.96;102881.28;4973824;28;45246;-69
2023/02/10 05:27:48;;;;;;;;;82.33;75.67;;;;;6.64;66.26;102883.06;4973862;28;45647;-69
2023/02/10 05:30:13;;;;;;;;;80.67;69.67;;;;;6.65;66.32;102883.06;4974847;28;45995;-70
2023/02/10 05:32:40;;;;;;;;;79.33;69.00;;;;;6.67;66.34;102888.34;4974323;28;45269;-68
2023/02/10 05:35:06;;;;;;;;;70.33;56.67;;;;;6.67;66.16;102888.34;4974031;28;45422;-69
2023/02/10 05:37:31;;;;;;;;;75.00;63.00;;;;;6.68;66.20;102884.88;4973808;28;45376;-69
2023/02/10 05:39:56;;;;;;;;;70.67;60.00;;;;;6.68;66.70;102884.88;4972255;28;46064;-67
2023/02/10 05:42:22;;;;;;;;;75.00;61.33;;;;;6.66;65.64;102889.19;4973886;28;45322;-67
2023/02/10 05:44:47;;;;;;;;;65.67;53.33;;;;;6.64;66.11;102888.31;4974172;28;45380;-67
2023/02/10 05:47:12;;;;;;;;;68.00;56.00;;;;;6.70;65.04;102898.84;4973762;28;45469;-68
2023/02/10 05:49:38;;;;;;;;;69.00;54.75;;;;;6.57;65.12;102867.31;4974047;28;45945;-70
2023/02/10 05:52:03;;;;;;;;;65.50;53.50;;;;;6.76;65.24;102896.31;4973526;28;45241;-69
2023/02/10 05:54:29;;;;;;;;;59.00;49.00;;;;;6.75;66.04;102891.94;4972276;28;45341;-67
2023/02/10 05:56:55;;;;;;;;;64.25;53.75;;;;;6.76;64.81;102904.16;4975052;28;45299;-67
2023/02/10 05:59:20;;;;;;;;;61.75;51.50;;;;;6.76;65.58;102900.66;4974133;28;46169;-68
2023/02/10 06:01:46;;;;;;;;;56.25;47.00;;;;;6.82;65.51;102905.97;4974277;28;45239;-70
2023/02/10 06:04:11;;;;;;;;;60.25;49.25;;;;;6.81;65.03;102897.25;4973510;28;45294;-69
2023/02/10 06:06:36;;;;;;;;;66.50;54.75;;;;;6.75;65.53;102891.94;4973838;28;45163;-70
2023/02/10 06:09:02;;;;;;;;;59.75;48.25;;;;;6.86;64.72;102903.41;4974151;28;45693;-71
2023/02/10 06:11:28;;;;;;;;;57.50;48.25;;;;;6.87;65.18;102906.91;4972754;28;45357;-71
2023/02/10 06:13:53;;;;;;;;;66.25;53.00;;;;;6.81;64.69;102897.25;4972799;28;50577;-70
2023/02/10 06:16:18;;;;;;;;;59.50;48.25;;;;;6.89;64.35;102913.03;4971990;28;45509;-69
2023/02/10 06:18:47;;;;;;;;;62.25;51.00;;;;;6.90;64.43;102913.91;4973895;28;60775;-68
2023/02/10 06:21:12;;;;;;;;;60.00;49.50;;;;;6.91;64.58;102908.72;4971800;28;45321;-71
2023/02/10 06:23:37;;;;;;;;;54.25;45.50;;;;;6.93;64.69;102916.56;4973172;28;45284;-69
2023/02/10 06:26:03;;;;;;;;;59.75;49.75;;;;;6.89;64.73;102910.41;4972580;28;50388;-68
2023/02/10 06:28:28;;;;;;;;;58.75;48.25;;;;;6.93;64.12;102916.56;4973515;28;46389;-67
2023/02/10 06:30:55;;;;;;;;;62.00;50.00;;;;;6.89;64.58;102904.31;4977586;28;45352;-67
2023/02/10 06:33:20;;;;;;;;;61.25;50.00;;;;;6.92;64.51;102907.88;4977114;28;45378;-69
2023/02/10 06:35:46;;;;;;;;;62.75;51.00;;;;;6.93;64.48;102904.38;4974723;28;45432;-70
2023/02/10 06:38:12;;;;;;;;;62.50;52.25;;;;;6.95;64.97;102907.00;5001921;28;45451;-69
2023/02/10 06:40:37;;;;;;;;;66.75;54.00;;;;;6.95;65.02;102907.00;4969675;28;45233;-74
2023/02/10 06:43:02;;;;;;;;;59.50;48.25;;;;;6.95;64.98;102910.50;4973458;28;45512;-77
2023/02/10 06:45:29;;;;;;;;;61.75;51.00;;;;;6.96;65.44;102911.38;4991039;28;45288;-70
2023/02/10 06:47:54;;;;;;;;;60.50;49.75;;;;;6.94;64.72;102918.34;4987204;28;45456;-67
2023/02/10 06:50:20;;;;;;;;;66.33;55.00;;;;;6.91;65.32;102919.19;4976145;28;45330;-72
2023/02/10 06:52:46;;;;;;;;;66.25;53.75;;;;;6.87;65.13;102913.03;4974904;28;45424;-72
2023/02/10 06:55:12;;;;;;;;;66.50;53.50;;;;;6.91;65.27;102913.06;4985354;28;45485;-72
2023/02/10 06:57:38;;;;;;;;;67.25;55.00;;;;;6.87;65.39;102913.03;4974192;28;45471;-72
2023/02/10 07:00:07;;;;;;;;;69.00;57.00;;;;;6.93;65.06;102925.31;4974206;28;45424;-73
2023/02/10 07:02:32;;;;;;;;;68.33;55.33;;;;;6.89;64.57;102913.03;4975295;28;45238;-71
2023/02/10 07:04:58;;;;;;;;;67.75;55.75;;;;;6.91;65.19;102913.97;4976814;28;45571;-72
2023/02/10 07:07:23;;;;;;;;;68.33;57.00;;;;;6.76;64.95;102898.94;4975299;27;49852;-71
2023/02/10 07:09:48;;;;;;;;;68.00;54.67;;;;;6.86;64.81;102911.25;4974979;28;45469;-71
2023/02/10 07:12:14;;;;;;;;;69.00;57.00;;;;;6.86;64.81;102916.50;4975374;28;45296;-71
2023/02/10 07:14:39;;;;;;;;;65.50;52.00;;;;;6.92;65.03;102922.66;4975538;28;45373;-70
2023/02/10 07:17:04;;;;;;;;;65.75;54.25;;;;;6.91;65.45;102932.28;4974602;28;47700;-70
2023/02/10 07:19:30;;;;;;;;;56.33;42.33;;;;;6.93;65.32;102929.66;4973136;28;49853;-71
2023/02/10 07:21:56;;;;;;;;;66.33;54.00;;;;;6.93;65.23;102932.28;4974700;28;45415;-70
2023/02/10 07:24:21;;;;;;;;;66.75;53.25;;;;;6.92;65.22;102936.66;4975586;28;45394;-70
2023/02/10 07:26:47;;;;;;;;;65.00;53.25;;;;;6.81;64.84;102928.66;4973535;28;46074;-72
2023/02/10 07:29:12;;;;;;;;;66.50;53.75;;;;;6.89;64.70;102941.81;4975083;28;45292;-71
2023/02/10 07:31:37;;;;;;;;;62.25;51.25;;;;;6.87;64.80;102939.19;4975010;28;45422;-70
2023/02/10 07:34:03;;;;;;;;;59.75;49.00;;;;;6.84;65.97;102949.59;4974932;28;45382;-72
2023/02/10 07:36:31;;;;;;;;;63.00;50.50;;;;;6.91;64.97;102947.97;4974711;28;46584;-73
2023/02/10 07:38:56;;;;;;;;;64.25;52.50;;;;;6.92;64.67;102952.34;4972263;28;45473;-72
2023/02/10 07:41:22;;;;;;;;;61.25;50.25;;;;;6.89;64.93;102947.03;4972249;28;45477;-72
2023/02/10 07:43:47;;;;;;;;;64.50;51.75;;;;;6.87;64.80;102948.75;4974618;28;45316;-72
2023/02/10 07:46:14;;;;;;;;;64.50;53.25;;;;;6.86;64.44;102940.03;4973104;28;49170;-71
2023/02/10 07:48:40;;;;;;;;;66.75;53.50;;;;;6.94;63.93;102962.81;4974315;28;45453;-70
2023/02/10 07:51:05;;;;;;;;;61.50;49.75;;;;;6.93;64.68;102956.72;4975469;27;45729;-70
2023/02/10 07:53:30;;;;;;;;;65.00;53.00;;;;;6.97;64.88;102966.38;4974086;28;54766;-70
2023/02/10 07:55:58;;;;;;;;;58.25;48.75;;;;;6.76;64.78;102926.81;4972899;28;47227;-73
2023/02/10 07:58:24;;;;;;;;;61.25;50.25;;;;;7.01;64.66;102962.03;4974575;28;45249;-71
2023/02/10 08:00:49;;;;;;;;;63.25;51.50;;;;;7.03;64.29;102967.31;4974071;28;45728;-72
2023/02/10 08:03:15;;;;;;;;;70.00;56.50;;;;;7.07;64.25;102969.97;4973405;28;45608;-72
2023/02/10 08:05:41;;;;;;;;;63.50;52.00;;;;;7.06;64.23;102957.75;4973758;28;47201;-72
2023/02/10 08:08:08;;;;;;;;;62.75;51.25;;;;;7.05;64.72;102952.50;4974325;28;45354;-73
2023/02/10 08:10:33;;;;;;;;;69.33;55.67;;;;;7.08;63.92;102960.41;4973128;28;45422;-72
2023/02/10 08:12:58;;;;;;;;;72.33;58.33;;;;;7.07;63.83;102967.34;4973516;28;45278;-73
2023/02/10 08:15:25;;;;;;;;;67.67;53.33;;;;;7.04;64.29;102967.31;4972580;28;46923;-72
2023/02/10 08:17:50;;;;;;;;;64.00;52.00;;;;;7.11;64.07;102984.00;4974613;28;45394;-71
2023/02/10 08:20:16;;;;;;;;;67.67;54.67;;;;;7.07;64.30;102985.66;4974704;28;45265;-69
2023/02/10 08:22:41;;;;;;;;;68.00;56.00;;;;;7.04;63.87;102976.91;4975097;28;45576;-71
2023/02/10 08:25:06;;;;;;;;;70.33;58.00;;;;;7.00;64.56;102962.91;4973989;28;46106;-71
2023/02/10 08:27:32;;;;;;;;;64.25;53.00;;;;;7.15;64.66;102989.25;4974386;28;45398;-73
2023/02/10 08:29:57;;;;;;;;;70.00;55.00;;;;;7.11;64.07;102978.75;4974207;28;45322;-73
2023/02/10 08:32:23;;;;;;;;;67.00;53.50;;;;;7.19;64.40;102978.84;4973081;28;45317;-71
2023/02/10 08:34:49;;;;;;;;;63.67;52.33;;;;;7.22;64.57;102985.00;4974095;28;54383;-71
2023/02/10 08:37:16;;;;;;;;;70.00;58.00;;;;;7.25;63.75;102992.00;4975198;28;45241;-71
2023/02/10 08:39:43;;;;;;;;;71.33;59.33;;;;;7.23;63.63;102989.38;4975694;28;45375;-73
2023/02/10 08:42:09;;;;;;;;;68.33;56.33;;;;;7.25;63.93;102998.13;4973093;28;45527;-73
2023/02/10 08:44:35;;;;;;;;;66.00;55.00;;;;;7.29;63.92;103007.78;4973931;28;45484;-75
2023/02/10 08:47:01;;;;;;;;;67.33;56.67;;;;;7.27;64.20;103000.75;4973833;28;45418;-73
2023/02/10 08:49:27;;;;;;;;;67.33;55.00;;;;;7.32;63.82;103004.31;4974163;28;45443;-73
2023/02/10 08:51:53;;;;;;;;;70.67;57.67;;;;;7.37;63.75;103004.38;4972884;28;45579;-73
2023/02/10 08:54:19;;;;;;;;;68.67;55.33;;;;;7.31;63.60;102989.44;4972834;28;46183;-73
2023/02/10 08:56:44;;;;;;;;;68.67;59.33;;;;;7.43;63.36;103001.81;4974208;28;45633;-73
2023/02/10 08:59:10;;;;;;;;;66.00;52.75;;;;;7.31;63.10;102977.25;4974303;28;45224;-73
2023/02/10 09:01:36;;;;;;;;;68.00;55.00;;;;;7.48;63.51;102997.53;4974151;28;45662;-72
2023/02/10 09:04:02;;;;;;;;;63.00;51.33;;;;;7.46;63.03;102991.38;4973610;28;46574;-72
2023/02/10 09:06:32;;;;;;;;;74.75;59.00;;;;;7.58;62.63;102993.28;4973563;28;45339;-71
2023/02/10 09:08:59;;;;;;;;;69.33;58.00;;;;;7.62;62.45;103000.31;4972545;28;45250;-72
2023/02/10 09:11:26;;;;;;;;;68.67;57.33;;;;;7.56;61.80;102976.66;4974092;28;45567;-72
2023/02/10 09:13:51;;;;;;;;;66.67;55.67;;;;;7.64;62.56;102987.22;4974065;28;46203;-74
2023/02/10 09:16:17;;;;;;;;;62.50;51.50;;;;;7.70;61.91;102988.19;4974768;28;45258;-71
2023/02/10 09:18:45;;;;;;;;;69.75;57.00;;;;;7.73;62.45;103003.94;4974734;28;45248;-72
2023/02/10 09:21:11;;;;;;;;;66.25;53.75;;;;;7.77;62.02;102996.09;4974812;28;45369;-73
2023/02/10 09:23:37;;;;;;;;;65.67;54.67;;;;;7.82;61.95;103003.13;4977073;28;45415;-73
2023/02/10 09:26:02;;;;;;;;;69.33;59.33;;;;;7.90;62.18;102993.59;4974486;28;45549;-72
2023/02/10 09:28:28;;;;;;;;;70.00;57.33;;;;;7.89;61.79;102986.59;4972761;28;45260;-70
2023/02/10 09:30:54;;;;;;;;;63.25;52.00;;;;;8.00;61.27;102986.72;4975610;28;45164;-73
2023/02/10 09:33:20;;;;;;;;;66.00;52.50;;;;;8.00;61.36;102976.22;4972562;28;46281;-71
2023/02/10 09:35:45;;;;;;;;;66.50;54.75;;;;;8.04;60.97;102980.63;4973535;28;45285;-72
2023/02/10 09:38:12;;;;;;;;;67.25;56.25;;;;;8.10;61.16;102989.41;4973076;28;45299;-72
2023/02/10 09:41:03;;;;;;;;;68.25;55.25;;;;;8.15;60.68;102988.59;4973422;28;45505;-71
2023/02/10 09:43:31;;;;;;;;;64.50;52.75;;;;;8.19;60.21;102997.38;4972990;28;46098;-71
2023/02/10 09:46:32;;;;;;;;;62.25;52.25;;;;;8.23;60.32;103001.78;4973087;28;45273;-72
2023/02/10 09:49:24;;;;;;;;;56.00;45.50;;;;;8.22;60.37;102996.53;4975227;28;45440;-71
2023/02/10 09:52:12;;;;;;;;;55.25;45.75;;;;;8.23;59.92;102987.78;4973420;28;45290;-71
2023/02/10 09:54:39;;;;;;;;;49.75;42.50;;;;;8.14;59.81;102983.34;4971699;28;46117;-72
2023/02/10 09:57:12;;;;;;;;;56.75;47.00;;;;;8.23;59.70;103012.25;4972906;28;45305;-69
2023/02/10 09:59:38;;;;;;;;;56.25;47.25;;;;;8.18;59.99;103004.38;4973499;28;45390;-69
2023/02/10 10:02:32;;;;;;;;;52.50;44.25;;;;;8.23;59.29;102995.66;4973712;28;45601;-72
2023/02/10 10:05:01;;;;;;;;;55.25;46.00;;;;;8.32;59.72;102998.34;4972654;28;46255;-71
2023/02/10 10:07:35;;;;;;;;;55.75;47.00;;;;;8.36;59.09;103013.25;4957204;28;45938;-72
2023/02/10 10:10:20;;;;;;;;;58.75;49.75;;;;;8.38;59.35;103003.66;4972994;28;45476;-73
2023/02/10 10:12:46;;;;;;;;;51.75;43.75;;;;;8.43;58.82;102998.41;4974059;28;45281;-72
2023/02/10 10:15:18;;;;;;;;;55.25;46.00;;;;;8.47;58.86;103000.19;4972819;28;45658;-72
2023/02/10 10:17:49;;;;;;;;;53.75;46.50;;;;;8.56;58.65;103002.06;4972531;28;45300;-71
2023/02/10 10:20:36;;;;;;;;;56.00;45.75;;;;;8.60;58.73;103009.97;4973011;28;45416;-74
2023/02/10 10:23:19;;;;;;;;;52.00;44.75;;;;;8.61;59.24;103005.59;4971520;28;45359;-72
2023/02/10 10:26:13;;;;;;;;;54.25;45.75;;;;;8.71;58.68;103004.78;4972546;28;45667;-73
2023/02/10 10:29:20;;;;;;;;;53.75;45.75;;;;;8.79;58.49;103014.47;4972574;28;45578;-73
2023/02/10 10:31:48;;;;;;;;;52.25;43.50;;;;;8.85;58.37;103012.75;4972494;28;45323;-71
2023/02/10 10:34:17;;;;;;;;;55.75;46.50;;;;;8.90;58.49;103013.66;4972744;28;45599;-73
2023/02/10 10:36:48;;;;;;;;;51.00;43.50;;;;;9.02;58.23;103017.22;4972211;28;46326;-72
2023/02/10 10:39:32;;;;;;;;;49.50;42.25;;;;;9.08;58.02;103017.25;4972105;28;45296;-72
2023/02/10 10:42:10;;;;;;;;;55.75;47.25;;;;;9.16;57.83;103010.31;4971548;28;45399;-72
2023/02/10 10:44:39;;;;;;;;;51.75;44.75;;;;;9.25;57.75;103019.97;4972271;28;45298;-74
2023/02/10 10:47:13;;;;;;;;;55.25;46.75;;;;;9.26;57.32;103016.50;4971907;28;46628;-70
2023/02/10 10:49:39;;;;;;;;;52.75;44.75;;;;;9.32;57.37;103023.50;4972120;28;45308;-72
2023/02/10 10:52:24;;;;;;;;;49.00;42.00;;;;;9.40;57.78;103034.91;4972629;28;45321;-73
2023/02/10 10:54:50;;;;;;;;;53.50;45.50;;;;;9.48;57.43;103022.69;4972820;28;45452;-72
2023/02/10 10:57:18;;;;;;;;;46.50;40.75;;;;;9.57;57.21;103029.72;4971815;28;45416;-74
2023/02/10 10:59:48;;;;;;;;;51.50;44.25;;;;;9.64;56.89;103014.88;4972580;28;45227;-72
2023/02/10 11:02:18;;;;;;;;;51.50;42.75;;;;;9.69;56.65;103007.88;4972871;28;45375;-72
2023/02/10 11:04:45;;;;;;;;;51.50;44.25;;;;;9.80;57.23;103007.88;4973755;28;45603;-72
2023/02/10 11:07:17;;;;;;;;;49.75;41.75;;;;;9.85;56.97;103005.28;4971767;28;46300;-71
2023/02/10 11:09:50;;;;;;;;;54.75;44.75;;;;;9.86;56.41;102999.16;4971407;28;45423;-71
2023/02/10 11:12:22;;;;;;;;;46.25;38.75;;;;;9.83;56.19;102989.50;4970563;28;45383;-73
2023/02/10 11:14:53;;;;;;;;;47.50;40.25;;;;;9.93;55.82;102995.66;4972068;28;45319;-73
2023/02/10 11:17:18;;;;;;;;;48.25;41.75;;;;;9.97;55.89;102992.16;4972969;28;45502;-70
2023/02/10 11:19:54;;;;;;;;;54.00;44.75;;;;;10.04;56.44;102987.75;4974667;28;49356;-73
2023/02/10 11:22:21;;;;;;;;;45.00;39.50;;;;;10.06;56.22;102971.13;4974481;28;45254;-72